Maria Stein, Ohio
Current Conditions -  °F | °C
As of 2:14 PM on Friday 24 Oct 2014 (Local Time) from KAXV Reporting Station
Clear Clear  
Wind Chill: 63°   Ceiling: Unl
Heat Index: 63°   Visibility: 7mi
Dew Point: 41°   Wind: 5mph
Humidity: 45%   Direction: 150°SSE
Pressure: 30.05"   Gusts: NA
Location:  40.41°N, 84.49°W
Report Text: KAXV 241814Z AUTO 15004KT 7SM CLR 17/05 A3005 RMK AO2
Loading
Personal Weather Stations






























Interactive Weather Map
Tropical Storm Tracking
New forecast layout! Learn more

10-Day Weather Forecast

Advertisements
Track Severe Weather on mobile